Nearby METAR Reports

 

KPRB - Paso Robles, California, USA
Distance from station: SW 1mi, 1km
Updated: 10/25/2014 12:53am
Clear
Clear
 Wind from ESE
Wind: ESE 5 mph , 7 km/h
Temperature: 50°F , 10°C
Wind Chill: 48°F , 9°C
Dew Point: 46°F , 8°C
Humidity: 88%
Barometer: 30.02 inHg , 1016.6 hPa
Clouds: Clear
Visibility: 10 miles , 16 km
2014/10/25 07:53 KPRB 250753Z AUTO 12004KT 10SM CLR 10/08 A3002 RMK AO2 SLP159 T01000078 403060067 TSNO
KSBP - San Luis Obispo, California, USA
Distance from station: S 30mi, 49km
Updated: 10/25/2014 12:56am
Clear
Clear
 Wind from calm
Wind: Calm
Temperature: 54°F , 12°C
Dew Point: 52°F , 11°C
Humidity: 94%
Barometer: 30.03 inHg , 1016.9 hPa
Clouds: Clear
Visibility: 10 miles , 16 km
2014/10/25 07:56 KSBP 250756Z AUTO 00000KT 10SM CLR 12/11 A3003 RMK AO2 SLP166 T01220111 402560094
 
KSMX - Santa Maria, California, USA
Distance from station: S 54mi, 87km
Updated: 10/25/2014 1:12am
Partly cloudy
Partly cloudy
 Wind from E
Wind: E 3 mph , 6 km/h
Temperature: 63°F , 17°C
Dew Point: 55°F , 13°C
Humidity: 77%
Barometer: 30.03 inHg , 1016.9 hPa
Clouds: Partly cloudy
Visibility: 9 miles , 14 km
Cloud details: Partly cloudy 1400 ft
2014/10/25 08:12 KSMX 250812Z AUTO 09003KT 9SM SCT014 17/13 A3003 RMK AO2 T01670133
KNLC - Lemoore Nas/Reev, California, USA
Distance from station: NE 58mi, 94km
Updated: 10/25/2014 12:56am
Clear
Clear
 Wind from S
Wind: S 8 mph , 13 km/h
Temperature: 61°F , 16°C
Barometer: 29.94 inHg , 1013.9 hPa
Clouds: Clear
Visibility: 10 miles , 16 km
2014/10/25 07:56 KNLC 250756Z AUTO 17007KT 10SM CLR 16/ A2994 RMK AO2 SLP137 T0156 402940083 $
 
KVBG - Vandenberg Afb, California, USA
Distance from station: S 65mi, 105km
Updated: 10/25/2014 12:55am
Clear
Clear
 Wind from E
Wind: E 5 mph , 7 km/h
Temperature: 57°F , 14°C
Dew Point: 54°F , 12°C
Humidity: 88%
Barometer: 30.04 inHg , 1017.3 hPa
Clouds: Clear
Visibility: 10 miles , 16 km
2014/10/25 07:55 KVBG 250755Z AUTO 08004KT 10SM CLR 14/12 A3004 RMK AO2 SLP161 T01390122 TSNO $
KLPC - Lompoc, California, USA
Distance from station: S 70mi, 113km
Updated: 10/25/2014 1:35am
Clear
Clear
 Wind from E
Wind: E 5 mph , 7 km/h
Temperature: 57°F , 14°C
Dew Point: 52°F , 11°C
Humidity: 82%
Barometer: 30.03 inHg , 1016.9 hPa
Clouds: Clear
Visibility: 10 miles , 16 km
2014/10/25 08:35 KLPC 250835Z AUTO 08004KT 10SM CLR 14/11 A3003 RMK AO1
 
KHJO - Hanford, California, USA
Distance from station: NE 72mi, 116km
Updated: 10/25/2014 12:53am
Clear
Clear
 Wind from NE
Wind: NE 5 mph , 7 km/h
Temperature: 55°F , 13°C
Dew Point: 45°F , 7°C
Humidity: 67%
Barometer: 29.94 inHg , 1013.9 hPa
Clouds: Clear
Visibility: 8 miles , 13 km
2014/10/25 07:53 KHJO 250753Z AUTO 05004KT 8SM CLR 13/07 A2994 RMK AO2 SLP140 T01280072 402890083